createdAt,value
2023-03-08T00:00:50.119Z,4.97
2023-03-08T00:05:51.368Z,5.13
2023-03-08T00:10:52.694Z,4.30
2023-03-08T00:15:54.114Z,4.88
2023-03-08T00:21:03.481Z,4.80
2023-03-08T00:26:04.942Z,4.78
2023-03-08T00:31:07.599Z,4.28
2023-03-08T00:36:16.396Z,5.03
2023-03-08T00:41:18.262Z,5.50
2023-03-08T00:46:19.577Z,4.30
2023-03-08T00:51:21.606Z,4.50
2023-03-08T00:56:22.898Z,4.60
2023-03-08T01:01:24.174Z,4.67
2023-03-08T01:06:25.444Z,4.57
2023-03-08T01:11:27.438Z,4.83
2023-03-08T01:16:30.625Z,4.85
2023-03-08T01:21:32.352Z,5.18
2023-03-08T01:26:33.847Z,4.80
2023-03-08T01:31:35.121Z,4.25
2023-03-08T01:36:36.637Z,4.20
2023-03-08T01:41:37.975Z,4.32
2023-03-08T01:46:39.223Z,4.78
2023-03-08T01:51:46.536Z,4.40
2023-03-08T01:56:49.305Z,4.72
2023-03-08T02:01:50.599Z,4.50
2023-03-08T02:06:51.919Z,4.38
2023-03-08T02:11:53.741Z,4.13
2023-03-08T02:16:55.083Z,4.30
2023-03-08T02:21:56.464Z,4.50
2023-03-08T02:27:02.914Z,4.23
2023-03-08T02:32:04.467Z,4.22
2023-03-08T02:37:05.823Z,4.15
2023-03-08T02:42:07.172Z,4.00
2023-03-08T02:47:08.651Z,4.30
2023-03-08T02:52:09.910Z,4.03
2023-03-08T02:57:11.219Z,4.57
2023-03-08T03:02:12.491Z,4.28
2023-03-08T03:07:13.778Z,4.00
2023-03-08T03:12:15.022Z,3.85
2023-03-08T03:17:16.313Z,3.50
2023-03-08T03:22:17.623Z,3.60
2023-03-08T03:27:19.328Z,3.80
2023-03-08T03:32:20.629Z,3.87
2023-03-08T03:37:22.018Z,3.70
2023-03-08T03:42:23.289Z,3.57
2023-03-08T03:47:24.808Z,4.13
2023-03-08T03:52:26.103Z,3.47
2023-03-08T03:57:27.760Z,4.03
2023-03-08T04:02:29.298Z,2.95
2023-03-08T04:07:30.576Z,3.30
2023-03-08T04:12:31.962Z,3.25
2023-03-08T04:17:33.352Z,3.53
2023-03-08T04:22:34.614Z,2.73
2023-03-08T04:27:35.866Z,3.10
2023-03-08T04:32:37.119Z,3.33
2023-03-08T04:37:39.250Z,3.00
2023-03-08T04:42:43.284Z,2.90
2023-03-08T04:47:44.580Z,2.97
2023-03-08T04:52:45.816Z,3.35
2023-03-08T04:57:47.094Z,2.70
2023-03-08T05:02:48.517Z,2.97
2023-03-08T05:07:49.758Z,3.45
2023-03-08T05:12:51.104Z,4.20
2023-03-08T05:17:52.619Z,3.85
2023-03-08T05:22:58.879Z,3.87
2023-03-08T05:28:00.714Z,4.38
2023-03-08T05:33:03.122Z,4.07
2023-03-08T05:38:04.417Z,4.53
2023-03-08T05:43:05.747Z,4.38
2023-03-08T05:48:07.032Z,4.00
2023-03-08T05:53:08.298Z,4.32
2023-03-08T05:58:10.394Z,5.80
2023-03-08T06:03:11.826Z,3.10
2023-03-08T06:08:13.126Z,3.35
2023-03-08T06:13:14.371Z,3.90
2023-03-08T06:18:15.609Z,3.40
2023-03-08T06:23:18.580Z,3.17
2023-03-08T06:28:20.234Z,3.17
2023-03-08T06:33:29.242Z,4.13
2023-03-08T06:38:33.372Z,3.43
2023-03-08T06:43:35.706Z,4.60
2023-03-08T06:48:37.400Z,4.57
2023-03-08T06:53:38.947Z,4.47
2023-03-08T06:58:40.266Z,5.18
2023-03-08T07:03:41.716Z,6.37
2023-03-08T07:08:43.881Z,6.00
2023-03-08T07:13:45.140Z,5.20
2023-03-08T07:18:46.442Z,4.60
2023-03-08T07:23:47.733Z,5.10
2023-03-08T07:28:50.349Z,7.90
2023-03-08T07:33:51.796Z,5.45
2023-03-08T07:38:53.059Z,5.38
2023-03-08T07:43:54.318Z,6.33
2023-03-08T07:48:55.715Z,4.97
2023-03-08T07:53:56.975Z,5.27
2023-03-08T07:58:58.268Z,5.50
2023-03-08T08:04:00.005Z,5.60
2023-03-08T08:09:01.331Z,5.90
2023-03-08T08:14:03.660Z,5.40
2023-03-08T08:19:05.000Z,5.17
2023-03-08T08:24:06.683Z,5.70
2023-03-08T08:29:08.103Z,5.55
2023-03-08T08:34:10.042Z,5.70
2023-03-08T08:39:11.461Z,5.93
2023-03-08T08:44:12.786Z,6.10
2023-03-08T08:49:14.088Z,5.70
2023-03-08T08:54:15.554Z,6.00
2023-03-08T08:59:17.066Z,6.93
2023-03-08T09:04:20.605Z,6.10
2023-03-08T09:09:21.974Z,6.23
2023-03-08T09:14:23.555Z,5.47
2023-03-08T09:19:24.848Z,5.90
2023-03-08T09:24:26.176Z,6.30
2023-03-08T09:29:27.468Z,6.55
2023-03-08T09:34:28.795Z,5.77
2023-03-08T09:39:30.149Z,6.43
2023-03-08T09:44:43.969Z,6.65
2023-03-08T09:49:46.869Z,6.67
2023-03-08T09:54:48.658Z,7.03
2023-03-08T09:59:54.506Z,6.70
2023-03-08T10:05:11.915Z,7.18
2023-03-08T10:10:14.426Z,7.47
2023-03-08T10:15:17.702Z,8.00
2023-03-08T10:20:22.264Z,7.55
2023-03-08T10:25:31.442Z,7.47
2023-03-08T10:30:37.353Z,9.05
2023-03-08T10:35:52.492Z,8.68
2023-03-08T10:41:04.573Z,7.90
2023-03-08T10:46:11.059Z,8.50
2023-03-08T10:51:20.724Z,8.33
2023-03-08T10:56:44.819Z,7.68
2023-03-08T11:01:53.200Z,8.07
2023-03-08T11:06:54.867Z,6.87
2023-03-08T11:11:57.226Z,8.40
2023-03-08T11:17:17.277Z,10.20
2023-03-08T11:22:22.497Z,16.33
2023-03-08T11:27:39.232Z,7.72
2023-03-08T11:32:48.251Z,4.10
2023-03-08T11:37:54.419Z,1.80
2023-03-08T11:43:02.016Z,1.40
2023-03-08T11:48:12.323Z,1.27
2023-03-08T11:53:31.471Z,1.98
2023-03-08T11:58:36.240Z,1.20
2023-03-08T12:03:39.481Z,1.00
2023-03-08T12:08:49.160Z,1.00
2023-03-08T12:13:53.533Z,0.93
2023-03-08T12:18:58.243Z,0.73
2023-03-08T12:24:12.684Z,1.00
2023-03-08T12:29:18.518Z,1.40
2023-03-08T12:34:27.946Z,1.10
2023-03-08T12:39:30.815Z,1.00
2023-03-08T12:44:32.158Z,1.08
2023-03-08T12:49:35.577Z,0.90
2023-03-08T12:54:37.033Z,1.27
2023-03-08T12:59:39.353Z,0.90
2023-03-08T13:04:42.372Z,0.90
2023-03-08T13:09:51.236Z,1.20
2023-03-08T13:15:00.330Z,2.20
2023-03-08T13:20:21.399Z,0.80
2023-03-08T13:25:52.267Z,0.87
2023-03-08T13:30:57.347Z,0.80
2023-03-08T13:36:03.135Z,1.48
2023-03-08T13:41:04.597Z,0.80
2023-03-08T13:46:10.667Z,0.70
2023-03-08T13:51:15.990Z,0.80
2023-03-08T13:56:23.531Z,0.90
2023-03-08T14:01:25.901Z,0.90
2023-03-08T14:06:33.569Z,0.90
2023-03-08T14:11:36.496Z,0.73
2023-03-08T14:16:39.596Z,0.70
2023-03-08T14:21:47.788Z,1.48
2023-03-08T14:27:09.320Z,0.98
2023-03-08T14:32:10.847Z,0.70
2023-03-08T14:37:12.219Z,1.08
2023-03-08T14:42:20.630Z,1.17
2023-03-08T14:47:29.375Z,1.00
2023-03-08T14:52:31.760Z,0.70
2023-03-08T14:57:33.051Z,1.00
2023-03-08T15:02:34.363Z,1.10
2023-03-08T15:07:37.245Z,1.00
2023-03-08T15:12:38.618Z,1.88
2023-03-08T15:17:39.894Z,2.08
2023-03-08T15:22:45.517Z,1.40
2023-03-08T15:27:48.776Z,3.70
2023-03-08T15:32:51.268Z,4.73
2023-03-08T15:37:52.527Z,3.28
2023-03-08T15:42:54.443Z,4.65
2023-03-08T15:47:59.956Z,1.60
2023-03-08T15:53:01.338Z,6.03
2023-03-08T15:58:02.628Z,3.67
2023-03-08T16:03:04.115Z,6.07
2023-03-08T16:08:05.467Z,6.32
2023-03-08T16:13:07.398Z,7.27
2023-03-08T16:18:08.671Z,4.28
2023-03-08T16:23:09.984Z,2.70
2023-03-08T16:28:11.235Z,2.45
2023-03-08T16:33:12.520Z,1.77
2023-03-08T16:38:16.585Z,0.90
2023-03-08T16:43:17.910Z,1.17
2023-03-08T16:48:19.246Z,1.27
2023-03-08T16:53:20.562Z,0.95
2023-03-08T16:58:22.239Z,1.40
2023-03-08T17:03:23.476Z,0.90
2023-03-08T17:08:24.773Z,1.10
2023-03-08T17:13:26.051Z,1.10
2023-03-08T17:18:27.338Z,1.45
2023-03-08T17:23:28.590Z,1.20
2023-03-08T17:28:29.909Z,1.43
2023-03-08T17:33:31.186Z,0.68
2023-03-08T17:38:33.166Z,1.10
2023-03-08T17:43:34.978Z,1.05
2023-03-08T17:48:36.408Z,1.00
2023-03-08T17:53:38.066Z,0.47
2023-03-08T17:58:39.814Z,1.38
2023-03-08T18:03:41.208Z,1.40
2023-03-08T18:08:42.508Z,1.30
2023-03-08T18:13:43.764Z,0.82
2023-03-08T18:18:45.965Z,0.60
2023-03-08T18:23:47.666Z,0.88
2023-03-08T18:28:49.413Z,1.30
2023-03-08T18:33:52.892Z,1.17
2023-03-08T18:38:54.893Z,0.52
2023-03-08T18:43:56.814Z,0.90
2023-03-08T18:49:11.627Z,0.90
2023-03-08T18:54:13.972Z,0.70
2023-03-08T18:59:15.249Z,0.80
2023-03-08T19:04:16.992Z,1.30
2023-03-08T19:09:18.556Z,1.20
2023-03-08T19:14:19.881Z,0.50
2023-03-08T19:19:21.439Z,0.60
2023-03-08T19:24:22.751Z,0.60
2023-03-08T19:29:28.618Z,0.70
2023-03-08T19:34:34.375Z,0.60
2023-03-08T19:39:36.946Z,0.70
2023-03-08T19:44:38.568Z,0.77
2023-03-08T19:49:39.881Z,0.82
2023-03-08T19:54:45.427Z,1.00
2023-03-08T19:59:46.820Z,1.03
2023-03-08T20:04:48.093Z,0.73
2023-03-08T20:09:51.752Z,1.00
2023-03-08T20:14:53.055Z,1.00
2023-03-08T20:19:54.383Z,1.30
2023-03-08T20:24:55.706Z,1.30
2023-03-08T20:29:57.014Z,1.30
2023-03-08T20:34:58.356Z,0.93
2023-03-08T20:39:59.775Z,1.10
2023-03-08T20:45:01.361Z,1.20
2023-03-08T20:50:02.764Z,1.40
2023-03-08T20:55:04.265Z,1.20
2023-03-08T21:00:06.859Z,1.27
2023-03-08T21:05:08.408Z,1.20
2023-03-08T21:10:09.987Z,1.33
2023-03-08T21:15:11.505Z,1.30
2023-03-08T21:20:12.838Z,1.10
2023-03-08T21:25:14.121Z,1.10
2023-03-08T21:30:15.677Z,0.85
2023-03-08T21:35:17.006Z,0.80
2023-03-08T21:40:18.735Z,0.97
2023-03-08T21:45:20.029Z,0.90
2023-03-08T21:50:21.337Z,1.33
2023-03-08T21:55:22.719Z,0.98
2023-03-08T22:00:25.518Z,1.30
2023-03-08T22:05:26.812Z,1.50
2023-03-08T22:10:28.186Z,1.70
2023-03-08T22:15:29.431Z,1.43
2023-03-08T22:20:30.715Z,1.20
2023-03-08T22:25:32.002Z,0.85
2023-03-08T22:30:33.425Z,1.00
2023-03-08T22:35:35.048Z,1.27
2023-03-08T22:40:38.273Z,1.30
2023-03-08T22:45:39.767Z,1.40
2023-03-08T22:50:41.141Z,1.60
2023-03-08T22:55:46.237Z,1.67
2023-03-08T23:00:47.666Z,1.45
2023-03-08T23:05:49.112Z,1.30
2023-03-08T23:10:50.365Z,1.40
2023-03-08T23:15:51.642Z,1.38
2023-03-08T23:20:52.994Z,1.53
2023-03-08T23:25:54.408Z,1.25
2023-03-08T23:30:55.794Z,1.10
2023-03-08T23:35:57.107Z,1.20
2023-03-08T23:40:58.997Z,1.20
2023-03-08T23:46:00.392Z,1.00
2023-03-08T23:51:09.314Z,0.80
2023-03-08T23:56:16.994Z,1.17
